Time;durP1;ratioP1;P1;durP2;ratioP2;P2;SDS_P1;SDS_P2;PMS_P1;PMS_P2;Temp;Humidity;BMP_temperature;BMP_pressure;BME280_temperature;BME280_humidity;BME280_pressure;Samples;Min_cycle;Max_cycle;Signal;HPM_P1;HPM_P2
2022/06/18 00:00:27;;;;;;;11.30;9.88;;;12.10;99.90;12.10;98445.00;;;;4986223;28;87195;-60
2022/06/18 00:02:53;;;;;;;12.27;10.35;;;12.10;99.90;12.10;98438.00;;;;4983090;28;87731;-60
2022/06/18 00:05:22;;;;;;;10.50;8.88;;;12.10;99.90;12.10;98441.00;;;;4982285;28;87450;-60
2022/06/18 00:07:55;;;;;;;11.52;10.05;;;12.10;99.90;12.10;98442.00;;;;4982850;28;86976;-60
2022/06/18 00:10:25;;;;;;;10.18;8.30;;;12.10;99.90;12.10;98451.00;;;;4982328;28;86961;-60
2022/06/18 00:15:39;;;;;;;15.05;9.43;;;12.20;99.90;12.10;98442.00;;;;4982249;28;88379;-60
2022/06/18 00:18:13;;;;;;;16.60;10.32;;;12.10;99.90;12.00;98445.00;;;;4982651;28;87413;-60
2022/06/18 00:20:41;;;;;;;11.90;10.27;;;12.00;99.90;11.90;98440.00;;;;4964946;28;87645;-60
2022/06/18 00:23:14;;;;;;;13.85;10.55;;;12.00;99.90;11.90;98453.00;;;;4981681;28;88685;-60
2022/06/18 00:25:49;;;;;;;13.23;10.95;;;12.00;99.90;11.90;98439.00;;;;4981209;28;87480;-60
2022/06/18 00:28:25;;;;;;;13.73;10.73;;;11.90;99.90;11.90;98453.00;;;;4980780;28;87858;-60
2022/06/18 00:30:53;;;;;;;10.02;6.70;;;12.00;99.90;11.90;98451.00;;;;4982490;28;86748;-60
2022/06/18 00:33:20;;;;;;;11.43;9.38;;;12.00;99.90;11.90;98440.00;;;;4965108;28;87155;-60
2022/06/18 00:35:49;;;;;;;10.20;9.10;;;12.00;99.90;11.90;98449.00;;;;4981761;28;87956;-60
2022/06/18 00:38:30;;;;;;;14.85;10.60;;;12.00;99.90;11.90;98457.00;;;;4964863;28;88124;-60
2022/06/18 00:40:58;;;;;;;14.07;10.52;;;12.00;99.90;11.90;98452.00;;;;4957775;28;87005;-60
2022/06/18 00:43:36;;;;;;;16.42;10.50;;;12.00;99.90;11.90;98448.00;;;;4944925;28;87645;-60
2022/06/18 00:46:27;;;;;;;14.88;11.23;;;12.00;99.90;11.80;98450.00;;;;4980313;28;88034;-60
2022/06/18 00:49:18;;;;;;;15.63;11.60;;;11.90;99.90;11.80;98455.00;;;;4976979;28;87087;-60
2022/06/18 00:52:11;;;;;;;13.50;9.95;;;11.90;99.90;11.80;98450.00;;;;4980733;28;87084;-60
2022/06/18 00:54:57;;;;;;;10.95;8.65;;;11.90;99.90;11.90;98469.00;;;;4952946;28;88660;-60
2022/06/18 00:57:56;;;;;;;12.50;7.22;;;11.90;99.90;11.90;98460.00;;;;4948918;28;87874;-60
2022/06/18 01:00:46;;;;;;;11.40;6.53;;;12.00;99.90;12.00;98469.00;;;;4976016;28;86891;-60
2022/06/18 01:03:34;;;;;;;10.85;7.20;;;12.10;99.90;12.10;98467.00;;;;4981540;28;87050;-60
2022/06/18 01:06:16;;;;;;;16.27;6.50;;;12.10;99.90;12.10;98473.00;;;;4981159;28;88711;-60
2022/06/18 01:08:44;;;;;;;6.88;5.28;;;12.20;99.90;12.20;98475.00;;;;4958041;28;89548;-60
2022/06/18 01:11:24;;;;;;;6.88;5.40;;;12.20;99.90;12.20;98470.00;;;;4951865;28;86987;-60
2022/06/18 01:13:52;;;;;;;6.68;4.18;;;12.30;99.90;12.20;98479.00;;;;4964347;28;87046;-60
2022/06/18 01:16:21;;;;;;;6.50;5.15;;;12.30;99.90;12.20;98476.00;;;;4947960;28;88867;-60
2022/06/18 01:18:50;;;;;;;7.40;4.72;;;12.30;99.90;12.20;98477.00;;;;4975444;28;87640;-60
2022/06/18 01:21:40;;;;;;;9.38;4.85;;;12.30;99.90;12.20;98476.00;;;;4963989;28;87003;-60
2022/06/18 01:24:23;;;;;;;7.28;4.55;;;12.30;99.90;12.20;98480.00;;;;4936330;28;87035;-60
2022/06/18 01:26:53;;;;;;;5.75;4.40;;;12.30;99.90;12.30;98477.00;;;;4964370;28;87703;-60
2022/06/18 01:29:20;;;;;;;6.25;4.35;;;12.30;99.90;12.30;98488.00;;;;4951902;28;88300;-60
2022/06/18 01:31:47;;;;;;;7.20;4.03;;;12.40;99.90;12.30;98482.00;;;;4971893;28;88206;-60
2022/06/18 01:34:15;;;;;;;7.50;4.90;;;12.40;99.90;12.30;98483.00;;;;4964647;28;87459;-60
2022/06/18 01:36:48;;;;;;;6.70;3.75;;;12.40;99.90;12.30;98486.00;;;;4963075;28;87719;-60
2022/06/18 01:39:19;;;;;;;6.97;4.30;;;12.40;99.90;12.30;98488.00;;;;4985272;28;88403;-60
2022/06/18 01:41:52;;;;;;;;;;;12.40;99.90;12.30;98487.00;;;;4973397;28;87505;-61
2022/06/18 01:44:39;;;;;;;6.75;3.90;;;12.40;99.90;12.30;98493.00;;;;4988356;28;87010;-61
2022/06/18 01:47:22;;;;;;;7.70;5.35;;;12.40;99.90;12.20;98490.00;;;;4970628;28;88056;-60
2022/06/18 01:49:59;;;;;;;7.45;5.40;;;12.40;99.90;12.20;98488.00;;;;4970824;28;87262;-60
2022/06/18 01:52:39;;;;;;;8.95;4.88;;;12.30;99.90;12.50;98482.00;;;;4986333;28;87239;-60
2022/06/18 01:55:25;;;;;;;5.72;4.40;;;12.50;99.90;13.10;98485.00;;;;4957341;28;87088;-60
2022/06/18 01:58:00;;;;;;;6.00;4.07;;;13.00;99.90;13.70;98502.00;;;;4969617;28;88977;-60
2022/06/18 02:00:30;;;;;;;5.53;4.00;;;13.60;99.90;14.20;98491.00;;;;4970245;28;90336;-60
2022/06/18 02:03:03;;;;;;;7.15;3.17;;;14.10;99.90;14.70;98491.00;;;;4970412;28;86941;-60
2022/06/18 02:05:30;;;;;;;5.22;2.90;;;14.60;99.90;15.00;98500.00;;;;4970198;28;87203;-60
2022/06/18 02:07:58;;;;;;;5.63;3.55;;;15.00;99.90;15.30;98513.00;;;;4987705;28;88829;-60
2022/06/18 02:10:53;;;;;;;5.18;3.08;;;15.20;99.90;15.30;98505.00;;;;4955241;28;87815;-60
2022/06/18 02:13:22;;;;;;;4.93;2.58;;;15.30;99.90;15.40;98511.00;;;;4967967;28;87388;-60
2022/06/18 02:15:55;;;;;;;8.02;3.00;;;15.30;99.90;15.50;98511.00;;;;4972543;28;86708;-60
2022/06/18 02:18:21;;;;;;;6.22;2.53;;;15.40;99.90;15.60;98507.00;;;;4969886;28;88868;-60
2022/06/18 02:20:54;;;;;;;5.47;2.65;;;15.40;99.90;15.80;98516.00;;;;4937355;28;87972;-60
2022/06/18 02:23:23;;;;;;;5.15;2.20;;;15.60;99.90;16.00;98509.00;;;;4965382;28;88017;-60
2022/06/18 02:25:51;;;;;;;5.53;2.25;;;15.90;99.90;15.80;98517.00;;;;4987347;28;87508;-60
2022/06/18 02:28:31;;;;;;;5.60;2.33;;;15.70;99.90;15.80;98512.00;;;;4987304;28;87615;-60
2022/06/18 02:31:01;;;;;;;3.85;2.05;;;15.60;99.90;15.90;98502.00;;;;4984153;28;87732;-60
2022/06/18 02:33:46;;;;;;;3.25;2.20;;;15.70;99.90;16.00;98508.00;;;;4970520;28;87521;-60
2022/06/18 02:36:31;;;;;;;5.95;2.15;;;15.70;99.90;16.20;98505.00;;;;4957357;28;87101;-60
2022/06/18 02:39:09;;;;;;;4.28;1.70;;;16.10;99.90;16.60;98498.00;;;;4987316;28;87497;-61
2022/06/18 02:41:40;;;;;;;3.45;1.90;;;16.30;99.90;17.30;98491.00;;;;4970279;28;87916;-61
2022/06/18 02:44:08;;;;;;;;;;;17.00;99.90;17.40;98498.00;;;;4986094;28;86978;-60
2022/06/18 02:46:35;;;;;;;2.90;1.77;;;17.10;99.90;17.60;98498.00;;;;4979635;28;88087;-60
2022/06/18 02:49:04;;;;;;;7.25;1.80;;;17.30;99.90;17.60;98494.00;;;;4986361;28;89509;-61
2022/06/18 02:51:34;;;;;;;;;;;17.20;99.90;17.50;98497.00;;;;4982635;28;89325;-61
2022/06/18 02:54:04;;;;;;;9.65;1.92;;;17.30;99.90;17.40;98498.00;;;;4971424;28;87056;-61
2022/06/18 02:56:32;;;;;;;4.40;1.58;;;17.10;99.90;17.90;98490.00;;;;4966525;28;87071;-61
2022/06/18 02:58:58;;;;;;;4.25;1.80;;;17.60;99.90;18.00;98492.00;;;;4966182;28;87714;-61
2022/06/18 03:01:29;;;;;;;4.75;2.45;;;17.70;99.90;17.90;98489.00;;;;4983704;28;87588;-61
2022/06/18 03:03:59;;;;;;;2.45;1.70;;;17.70;99.90;17.80;98494.00;;;;4983876;28;86904;-60
2022/06/18 03:06:31;;;;;;;3.42;1.92;;;17.50;99.90;17.30;98501.00;;;;4966779;28;86309;-61
2022/06/18 03:08:57;;;;;;;4.20;1.80;;;17.10;99.90;17.50;98493.00;;;;4983582;28;87723;-61
2022/06/18 03:14:15;;;;;;;3.38;1.50;;;17.10;99.90;17.10;98495.00;;;;4965738;28;88223;-61
2022/06/18 03:16:42;;;;;;;2.55;1.60;;;17.00;99.90;17.40;98495.00;;;;4975360;28;86951;-61
2022/06/18 03:19:37;;;;;;;3.45;1.40;;;17.20;99.90;17.40;98500.00;;;;4981230;28;87760;-61
2022/06/18 03:22:16;;;;;;;4.93;1.50;;;17.10;99.90;17.40;98493.00;;;;4962733;28;88402;-61
2022/06/18 03:24:43;;;;;;;4.63;1.65;;;17.20;99.90;17.60;98489.00;;;;4963190;28;87405;-61
2022/06/18 03:27:14;;;;;;;6.05;1.88;;;17.30;99.90;17.80;98494.00;;;;4969816;28;87536;-61
2022/06/18 03:29:46;;;;;;;4.95;1.65;;;17.50;99.90;17.70;98494.00;;;;4974347;28;87785;-61
2022/06/18 03:32:12;;;;;;;1.90;1.50;;;17.50;99.90;17.60;98500.00;;;;4950168;28;87446;-60
2022/06/18 03:34:39;;;;;;;4.53;1.60;;;17.40;99.90;17.60;98492.00;;;;4966289;28;87238;-61
2022/06/18 03:37:05;;;;;;;4.07;1.80;;;17.40;99.90;17.60;98490.00;;;;4965819;28;87154;-61
2022/06/18 03:39:32;;;;;;;5.95;1.58;;;17.40;99.90;17.70;98503.00;;;;4965004;28;88251;-61
2022/06/18 03:41:59;;;;;;;3.75;1.50;;;17.50;99.90;17.80;98507.00;;;;4965609;28;88266;-61
2022/06/18 03:44:26;;;;;;;5.40;1.67;;;17.60;99.90;17.80;98501.00;;;;4964882;28;87139;-61
2022/06/18 03:46:53;;;;;;;5.10;1.45;;;17.60;99.90;18.20;98495.00;;;;4965004;28;87543;-61
2022/06/18 03:49:29;;;;;;;5.00;1.58;;;17.80;99.90;18.20;98489.00;;;;4949578;28;89941;-60
2022/06/18 03:52:00;;;;;;;6.55;1.65;;;17.90;99.90;18.30;98495.00;;;;4961657;28;87464;-61
2022/06/18 03:54:27;;;;;;;2.67;1.50;;;18.00;99.90;18.60;98496.00;;;;4982036;28;87200;-61
2022/06/18 03:56:54;;;;;;;3.55;1.48;;;18.40;99.90;18.70;98500.00;;;;4982476;28;86235;-61
2022/06/18 03:59:22;;;;;;;5.38;1.80;;;18.40;99.90;18.50;98503.00;;;;4981529;28;88146;-61
2022/06/18 04:01:49;;;;;;;5.13;1.70;;;18.30;99.90;18.80;98492.00;;;;4963520;28;87219;-61
2022/06/18 04:04:16;;;;;;;3.28;1.45;;;18.50;99.90;19.30;98502.00;;;;4965349;28;87929;-61
2022/06/18 04:06:46;;;;;;;3.45;1.45;;;19.00;99.90;20.30;98508.00;;;;4986513;28;87361;-61
2022/06/18 04:09:33;;;;;;;2.80;1.40;;;19.80;99.90;20.30;98506.00;;;;4927813;28;88225;-61
2022/06/18 04:12:00;;;;;;;3.92;1.73;;;19.90;99.90;20.80;98502.00;;;;4949288;28;88303;-61
2022/06/18 04:14:28;;;;;;;2.08;1.30;;;20.30;99.90;21.40;98506.00;;;;4964728;28;87071;-60
2022/06/18 04:17:02;;;;;;;3.45;1.40;;;20.80;99.90;21.70;98512.00;;;;4964857;28;87063;-61
2022/06/18 04:19:29;;;;;;;5.43;1.70;;;21.20;99.90;21.20;98513.00;;;;4964799;28;89792;-60
2022/06/18 04:21:56;;;;;;;5.15;1.42;;;20.70;99.90;21.00;98510.00;;;;4965433;28;87059;-60
2022/06/18 04:24:31;;;;;;;3.90;1.45;;;20.50;99.90;20.80;98510.00;;;;4981248;28;86963;-60
2022/06/18 04:26:58;;;;;;;2.33;1.42;;;20.30;99.90;21.10;98510.00;;;;4992288;28;87184;-60
2022/06/18 04:29:25;;;;;;;3.95;1.40;;;20.60;99.90;21.70;98523.00;;;;4975991;28;87992;-60
2022/06/18 04:31:51;;;;;;;3.45;1.52;;;21.00;99.90;21.00;98512.00;;;;4981202;28;89361;-60
2022/06/18 04:34:19;;;;;;;2.33;1.52;;;20.50;99.90;21.00;98517.00;;;;4965090;28;87064;-60
2022/06/18 04:37:04;;;;;;;1.50;1.30;;;20.40;99.90;20.60;98525.00;;;;4978119;28;86929;-60
2022/06/18 04:39:36;;;;;;;2.40;1.65;;;20.10;99.90;20.20;98518.00;;;;4978484;28;88552;-60
2022/06/18 04:42:15;;;;;;;5.10;1.60;;;19.80;99.90;20.60;98520.00;;;;4997561;28;87335;-60
2022/06/18 04:44:44;;;;;;;2.97;1.20;;;20.10;99.90;20.80;98518.00;;;;4981468;28;87140;-60
2022/06/18 04:47:16;;;;;;;6.13;1.50;;;20.20;99.90;20.70;98520.00;;;;4972539;28;86261;-60
2022/06/18 04:49:42;;;;;;;4.22;1.40;;;20.10;99.90;20.30;98517.00;;;;4987119;28;87884;-60
2022/06/18 04:52:12;;;;;;;1.95;1.23;;;19.90;99.90;19.70;98534.00;;;;4960947;28;87233;-60
2022/06/18 04:54:41;;;;;;;4.28;1.00;;;19.40;99.90;19.90;98518.00;;;;4964759;28;88432;-60
2022/06/18 04:57:07;;;;;;;2.00;1.20;;;19.40;99.90;20.30;98522.00;;;;4964240;28;87050;-60
2022/06/18 04:59:35;;;;;;;4.72;1.40;;;19.60;99.90;19.90;98529.00;;;;4964023;28;87425;-60
2022/06/18 05:02:08;;;;;;;1.77;1.13;;;19.30;99.90;19.80;98526.00;;;;4981217;28;88006;-60
2022/06/18 05:05:29;;;;;;;2.70;1.38;;;19.40;99.90;19.40;98548.00;;;;4955704;28;87152;-60
2022/06/18 05:08:21;;;;;;;4.00;1.35;;;19.10;99.90;19.60;98527.00;;;;4970887;28;87125;-60
2022/06/18 05:11:07;;;;;;;3.03;1.20;;;19.20;99.90;20.30;98542.00;;;;4947083;28;87989;-60
2022/06/18 05:13:54;;;;;;;2.70;1.10;;;19.70;99.90;19.20;98557.00;;;;4965873;28;87244;-60
2022/06/18 05:16:32;;;;;;;2.83;1.40;;;18.90;99.90;18.60;98548.00;;;;4956900;28;86992;-60
2022/06/18 05:18:59;;;;;;;3.00;1.30;;;18.60;99.90;19.30;98546.00;;;;5000589;28;87308;-59
2022/06/18 05:21:25;;;;;;;2.03;1.48;;;18.80;99.90;19.80;98548.00;;;;4963726;28;88548;-59
2022/06/18 05:23:54;;;;;;;4.30;1.50;;;19.30;99.90;19.00;98560.00;;;;4974570;28;89749;-59
2022/06/18 05:26:22;;;;;;;2.92;1.30;;;18.70;99.90;19.10;98554.00;;;;4964193;28;87421;-60
2022/06/18 05:28:48;;;;;;;3.10;1.20;;;18.90;99.90;19.80;98547.00;;;;4981687;28;86933;-59
2022/06/18 05:31:14;;;;;;;2.08;1.30;;;19.20;99.90;19.90;98545.00;;;;4964236;28;87616;-59
2022/06/18 05:33:41;;;;;;;3.08;1.33;;;19.40;99.90;20.20;98543.00;;;;4963825;28;87442;-60
2022/06/18 05:36:19;;;;;;;2.03;1.15;;;19.70;99.90;20.60;98550.00;;;;4981035;28;87070;-60
2022/06/18 05:38:46;;;;;;;1.77;0.95;;;20.00;99.90;19.10;98565.00;;;;4949060;28;86443;-59
2022/06/18 05:41:14;;;;;;;3.70;1.17;;;18.90;99.90;18.90;98561.00;;;;4971229;28;87763;-59
2022/06/18 05:43:40;;;;;;;6.07;1.00;;;18.70;99.90;19.10;98553.00;;;;4970233;28;87436;-59
2022/06/18 05:46:11;;;;;;;2.97;1.20;;;18.80;99.90;19.90;98550.00;;;;4980094;28;88336;-60
2022/06/18 05:48:37;;;;;;;3.47;1.10;;;19.30;99.90;19.40;98574.00;;;;4980407;28;87035;-59
2022/06/18 05:51:05;;;;;;;2.80;1.20;;;19.10;99.90;19.60;98554.00;;;;4979888;28;87850;-59
2022/06/18 05:53:31;;;;;;;3.50;0.98;;;19.30;99.90;19.50;98561.00;;;;4979338;28;87832;-60
2022/06/18 05:56:16;;;;;;;7.93;1.30;;;19.20;99.90;19.00;98565.00;;;;4980392;28;87078;-59
2022/06/18 05:58:56;;;;;;;1.77;1.02;;;18.90;99.90;18.30;98552.00;;;;4980947;28;86906;-59
2022/06/18 06:01:26;;;;;;;4.03;1.02;;;18.30;99.90;19.00;98552.00;;;;4963689;28;87803;-60
2022/06/18 06:03:52;;;;;;;1.83;0.88;;;18.70;99.90;19.30;98556.00;;;;4963054;28;86577;-59
2022/06/18 06:06:18;;;;;;;3.55;1.20;;;18.90;99.90;19.70;98544.00;;;;4979657;28;87064;-59
2022/06/18 06:08:47;;;;;;;0.93;0.90;;;19.30;99.90;20.40;98560.00;;;;4971185;28;86995;-60
2022/06/18 06:11:32;;;;;;;5.50;1.23;;;19.90;99.90;21.00;98549.00;;;;4962427;28;88647;-60
2022/06/18 06:14:05;;;;;;;5.10;1.42;;;20.50;99.90;20.80;98543.00;;;;4955175;28;89016;-60
2022/06/18 06:16:31;;;;;;;4.65;1.10;;;20.40;99.90;21.00;98559.00;;;;4980267;28;86897;-60
2022/06/18 06:19:03;;;;;;;1.53;1.00;;;20.50;99.90;20.60;98552.00;;;;4963130;28;87483;-60
2022/06/18 06:21:29;;;;;;;1.50;0.90;;;20.10;99.90;20.10;98562.00;;;;4979711;28;87781;-60
2022/06/18 06:23:55;;;;;;;2.35;1.00;;;19.70;99.90;19.90;98550.00;;;;4979404;28;88319;-60
2022/06/18 06:26:26;;;;;;;1.30;0.80;;;19.50;99.90;20.20;98551.00;;;;4982600;28;86951;-60
2022/06/18 06:28:52;;;;;;;3.30;1.17;;;19.70;99.90;20.40;98540.00;;;;4983816;28;86244;-60
2022/06/18 06:31:18;;;;;;;2.58;1.02;;;19.90;99.90;20.30;98541.00;;;;4983380;28;88648;-60
2022/06/18 06:33:45;;;;;;;3.90;0.90;;;19.80;99.90;19.70;98549.00;;;;4983104;28;87278;-59
2022/06/18 06:36:12;;;;;;;2.78;0.98;;;19.40;99.90;19.70;98548.00;;;;4982919;28;88797;-60
2022/06/18 06:38:39;;;;;;;1.58;1.08;;;19.50;99.90;19.50;98564.00;;;;4984264;28;86954;-59
2022/06/18 06:41:13;;;;;;;6.25;1.20;;;19.30;99.90;19.50;98562.00;;;;4982916;28;88802;-59
2022/06/18 06:43:40;;;;;;;2.35;0.90;;;19.40;99.90;19.40;98559.00;;;;4982878;28;87391;-59
2022/06/18 06:46:06;;;;;;;5.57;1.25;;;19.30;99.90;19.10;98565.00;;;;4983022;28;87594;-60
2022/06/18 06:48:32;;;;;;;2.95;1.00;;;19.10;99.90;19.00;98553.00;;;;4983710;28;87603;-59
2022/06/18 06:50:59;;;;;;;3.90;1.10;;;19.00;99.90;19.10;98556.00;;;;4982518;28;88333;-59
2022/06/18 06:53:25;;;;;;;2.08;1.05;;;19.10;99.90;18.80;98569.00;;;;4983342;28;87639;-59
2022/06/18 06:58:36;;;;;;;4.50;0.90;;;18.60;99.90;18.70;98571.00;;;;4980596;28;87034;-59
2022/06/18 07:01:02;;;;;;;1.27;0.70;;;18.70;99.90;18.80;98565.00;;;;4983874;28;88558;-59
2022/06/18 07:03:32;;;;;;;2.83;1.10;;;18.80;99.90;19.00;98560.00;;;;4984113;28;88089;-59
2022/06/18 07:06:01;;;;;;;3.55;0.98;;;19.00;99.90;19.00;98554.00;;;;4984647;28;87136;-59
2022/06/18 07:08:28;;;;;;;3.65;1.15;;;19.00;99.90;18.90;98563.00;;;;4983862;28;87009;-60
2022/06/18 07:10:54;;;;;;;4.72;1.23;;;18.80;99.90;18.70;98556.00;;;;4983305;28;87756;-59
2022/06/18 07:13:21;;;;;;;2.47;0.80;;;18.60;99.90;18.80;98557.00;;;;4982801;28;87438;-59
2022/06/18 07:15:50;;;;;;;1.45;1.10;;;18.70;99.90;18.70;98561.00;;;;4983132;28;87072;-59
2022/06/18 07:18:22;;;;;;;2.15;1.17;;;18.80;99.90;18.70;98565.00;;;;4983300;28;87265;-61
2022/06/18 07:20:49;;;;;;;8.18;1.30;;;18.80;99.90;18.70;98551.00;;;;4981983;28;88018;-60
2022/06/18 07:23:16;;;;;;;2.90;1.00;;;18.70;99.90;18.90;98546.00;;;;4980790;28;87279;-60
2022/06/18 07:25:43;;;;;;;2.15;1.00;;;18.90;99.90;19.10;98555.00;;;;4982316;28;88148;-60
2022/06/18 07:28:09;;;;;;;4.63;1.17;;;19.00;99.90;19.30;98547.00;;;;4983136;28;87180;-60
2022/06/18 07:30:36;;;;;;;2.05;1.00;;;19.20;99.90;19.40;98558.00;;;;4982518;28;88731;-60
2022/06/18 07:33:03;;;;;;;2.92;1.17;;;19.30;99.90;19.50;98544.00;;;;4983017;28;87183;-60
2022/06/18 07:35:31;;;;;;;4.25;1.08;;;19.40;99.90;19.40;98552.00;;;;4982715;28;87022;-60
2022/06/18 07:37:58;;;;;;;1.77;0.90;;;19.30;99.90;19.40;98552.00;;;;4987184;28;88223;-60
2022/06/18 07:40:30;;;;;;;1.60;0.90;;;19.30;99.90;19.40;98556.00;;;;4985747;28;89134;-60
2022/06/18 07:42:56;;;;;;;6.40;1.23;;;19.40;99.90;19.50;98554.00;;;;4982717;28;87295;-60
2022/06/18 07:45:25;;;;;;;5.20;1.15;;;19.50;99.90;19.80;98542.00;;;;4965468;28;87464;-60
2022/06/18 07:47:52;;;;;;;4.70;0.98;;;19.70;99.90;19.90;98531.00;;;;4981986;28;87593;-60
2022/06/18 07:50:20;;;;;;;2.55;1.10;;;19.90;99.90;19.60;98548.00;;;;4981445;28;88680;-59
2022/06/18 07:52:47;;;;;;;1.38;0.90;;;19.60;99.90;19.70;98548.00;;;;4981209;28;88023;-59
2022/06/18 07:55:28;;;;;;;2.00;0.95;;;19.60;99.90;19.80;98550.00;;;;4981534;28;87029;-59
2022/06/18 07:57:54;;;;;;;1.27;1.00;;;19.70;99.90;19.80;98546.00;;;;4979902;28;87313;-60
2022/06/18 08:00:23;;;;;;;2.72;1.20;;;19.70;99.90;20.00;98537.00;;;;4982191;28;87759;-60
2022/06/18 08:02:50;;;;;;;3.55;0.85;;;19.80;99.90;20.20;98545.00;;;;4982235;28;88345;-60
2022/06/18 08:05:25;;;;;;;4.40;0.98;;;20.00;99.90;20.30;98547.00;;;;4982493;28;86925;-60
2022/06/18 08:07:51;;;;;;;1.55;1.00;;;20.10;99.90;20.60;98549.00;;;;4982885;28;86246;-60
2022/06/18 08:10:18;;;;;;;2.20;1.23;;;20.40;99.90;20.60;98547.00;;;;4982499;28;87745;-60
2022/06/18 08:12:45;;;;;;;1.83;1.02;;;20.50;99.90;20.70;98541.00;;;;4982053;28;87065;-60
2022/06/18 08:15:11;;;;;;;3.63;1.00;;;20.60;99.90;20.70;98555.00;;;;4981433;28;87926;-60
2022/06/18 08:17:38;;;;;;;2.92;1.08;;;20.60;99.90;20.80;98541.00;;;;4981762;28;87011;-59
2022/06/18 08:20:07;;;;;;;7.13;1.20;;;20.60;99.90;20.80;98519.00;;;;4981806;28;87680;-59
2022/06/18 08:22:36;;;;;;;7.57;1.25;;;20.70;99.90;21.00;98530.00;;;;4984193;28;87478;-59
2022/06/18 08:25:04;;;;;;;3.53;1.30;;;20.70;99.90;21.00;98542.00;;;;4981851;28;87396;-60
2022/06/18 08:27:30;;;;;;;5.53;1.13;;;20.80;99.90;21.30;98534.00;;;;4981947;28;87565;-59
2022/06/18 08:29:57;;;;;;;4.18;1.45;;;20.90;99.90;21.10;98543.00;;;;4981784;28;88668;-60
2022/06/18 08:32:23;;;;;;;1.88;1.20;;;20.80;99.90;21.30;98539.00;;;;4981566;28;87474;-59
2022/06/18 08:34:49;;;;;;;3.28;1.10;;;20.80;99.90;21.20;98552.00;;;;4981400;28;87094;-59
2022/06/18 08:37:15;;;;;;;2.42;1.15;;;20.80;99.90;21.10;98548.00;;;;4981721;28;86994;-59
2022/06/18 08:39:41;;;;;;;2.28;1.20;;;20.60;99.90;20.90;98545.00;;;;4981672;28;88782;-59
2022/06/18 08:42:41;;;;;;;2.90;1.13;;;20.50;99.90;20.60;98551.00;;;;4981600;28;88863;-60
2022/06/18 08:45:23;;;;;;;6.00;1.80;;;20.40;99.90;20.60;98543.00;;;;4981680;28;87028;-60
2022/06/18 08:48:33;;;;;;;3.58;1.23;;;20.30;99.90;20.70;98521.00;;;;4980477;28;87128;-60
2022/06/18 08:51:20;;;;;;;1.88;1.13;;;20.40;99.90;21.00;98538.00;;;;4956898;28;88072;-60
2022/06/18 08:54:36;;;;;;;6.80;1.40;;;20.70;99.90;21.20;98538.00;;;;4980601;28;87326;-60
2022/06/18 08:57:30;;;;;;;6.13;1.20;;;20.70;99.90;21.20;98536.00;;;;4930236;28;87592;-60
2022/06/18 09:00:18;;;;;;;3.05;1.42;;;20.80;99.90;20.70;98550.00;;;;4918659;28;86287;-59
2022/06/18 09:03:15;;;;;;;3.63;1.13;;;20.30;99.90;20.40;98547.00;;;;4960459;28;87946;-59
2022/06/18 09:06:03;;;;;;;4.28;1.30;;;20.20;99.90;20.20;98551.00;;;;4986959;28;87467;-60
2022/06/18 09:08:56;;;;;;;4.97;1.50;;;19.90;99.90;20.50;98536.00;;;;4976625;28;87977;-60
2022/06/18 09:11:53;;;;;;;3.22;1.20;;;20.20;99.90;20.80;98529.00;;;;4981426;28;87088;-59
2022/06/18 09:14:45;;;;;;;4.25;1.50;;;20.60;99.90;21.00;98527.00;;;;4972193;28;87115;-59
2022/06/18 09:17:26;;;;;;;3.20;1.30;;;20.70;99.90;21.10;98522.00;;;;4973870;28;87404;-60
2022/06/18 09:19:59;;;;;;;2.70;1.30;;;20.80;99.90;21.40;98538.00;;;;4981008;28;87297;-59
2022/06/18 09:22:27;;;;;;;4.28;1.40;;;21.00;99.90;21.40;98534.00;;;;4967495;28;87054;-59
2022/06/18 09:25:02;;;;;;;3.42;0.98;;;21.00;99.90;21.20;98537.00;;;;4963145;28;87801;-60
2022/06/18 09:28:00;;;;;;;5.55;1.40;;;20.80;99.90;21.00;98538.00;;;;4981654;28;88485;-60
2022/06/18 09:30:40;;;;;;;3.25;1.77;;;20.60;99.90;20.80;98535.00;;;;4964155;28;87133;-60
2022/06/18 09:33:40;;;;;;;3.35;1.27;;;20.70;99.90;21.00;98525.00;;;;4975477;28;87342;-59
2022/06/18 09:36:19;;;;;;;4.43;1.20;;;20.60;99.90;21.00;98531.00;;;;4961431;28;88863;-60
2022/06/18 09:39:06;;;;;;;2.80;1.60;;;20.70;99.90;21.30;98529.00;;;;4955674;28;88340;-59
2022/06/18 09:42:19;;;;;;;3.38;1.75;;;21.00;99.90;21.60;98510.00;;;;4974920;28;87277;-60
2022/06/18 09:45:10;;;;;;;4.78;1.15;;;21.20;99.90;21.60;98538.00;;;;4916415;28;87454;-59
2022/06/18 09:47:46;;;;;;;2.15;1.00;;;21.40;99.90;21.20;98529.00;;;;4963880;28;87925;-59
2022/06/18 09:50:52;;;;;;;4.13;1.27;;;20.90;99.90;20.90;98529.00;;;;4964768;28;87151;-59
2022/06/18 09:53:26;;;;;;;2.35;1.20;;;20.60;99.90;20.80;98522.00;;;;4962757;28;87547;-59
2022/06/18 09:56:01;;;;;;;1.20;0.90;;;20.50;99.90;20.90;98511.00;;;;4980821;28;86376;-58
2022/06/18 09:58:34;;;;;;;3.38;1.02;;;20.80;99.90;20.90;98504.00;;;;4962849;28;87690;-58
2022/06/18 10:01:01;;;;;;;1.80;1.17;;;20.70;99.90;20.90;98520.00;;;;4977212;28;87488;-59
2022/06/18 10:09:11;;;;;;;3.42;1.00;;;20.30;99.90;20.60;98524.00;;;;4969710;28;87531;-60
2022/06/18 10:11:39;;;;;;;8.68;2.05;;;20.30;99.90;20.60;98518.00;;;;4966555;28;87900;-58
2022/06/18 10:14:21;;;;;;;5.55;1.63;;;20.30;99.90;20.60;98528.00;;;;4989040;28;87089;-58
2022/06/18 10:17:11;;;;;;;2.65;1.30;;;20.40;99.90;20.70;98513.00;;;;4986866;28;87133;-59
2022/06/18 10:19:58;;;;;;;3.38;1.10;;;20.40;99.90;20.80;98512.00;;;;4978224;28;88726;-59
2022/06/18 10:23:20;;;;;;;3.67;1.08;;;20.50;99.90;20.90;98520.00;;;;4966485;28;87264;-60
2022/06/18 10:26:42;;;;;;;3.05;1.20;;;20.50;99.90;20.80;98519.00;;;;4982799;28;87485;-60
2022/06/18 10:29:36;;;;;;;1.92;1.30;;;20.60;99.90;21.00;98518.00;;;;4943342;28;87702;-61
2022/06/18 10:32:17;;;;;;;2.15;1.10;;;20.60;99.90;21.20;98522.00;;;;4965801;28;89738;-61
2022/06/18 10:34:43;;;;;;;4.97;1.40;;;20.90;99.90;21.40;98524.00;;;;4984322;28;88449;-60
2022/06/18 10:37:19;;;;;;;4.85;1.40;;;21.10;99.90;22.00;98523.00;;;;4983665;28;87285;-60
2022/06/18 10:40:07;;;;;;;2.83;1.42;;;21.60;99.90;22.40;98525.00;;;;4964410;28;86900;-61
2022/06/18 10:43:13;;;;;;;5.13;1.70;;;22.20;99.90;22.20;98514.00;;;;4980998;28;87321;-60
2022/06/18 10:45:48;;;;;;;4.60;1.10;;;22.00;99.90;22.30;98520.00;;;;4983533;28;87365;-60
2022/06/18 10:48:23;;;;;;;3.92;1.27;;;22.00;99.90;22.20;98514.00;;;;4983855;28;87092;-60
2022/06/18 10:50:56;;;;;;;2.28;1.10;;;21.80;99.90;22.30;98520.00;;;;4966262;28;86311;-60
2022/06/18 10:53:34;;;;;;;4.72;1.15;;;22.00;99.90;22.20;98525.00;;;;4982218;28;88577;-60
2022/06/18 10:56:14;;;;;;;1.92;1.10;;;21.80;99.90;21.90;98520.00;;;;4982167;28;87560;-61
2022/06/18 10:58:56;;;;;;;8.70;1.10;;;21.60;99.90;21.80;98524.00;;;;4981664;28;88132;-60
2022/06/18 11:01:45;;;;;;;3.58;1.02;;;21.40;99.90;21.70;98535.00;;;;4977279;28;87045;-61
2022/06/18 11:04:26;;;;;;;2.28;0.90;;;21.30;99.90;21.60;98527.00;;;;4982131;28;87631;-61
2022/06/18 11:06:59;;;;;;;4.32;1.20;;;21.20;99.90;21.50;98537.00;;;;4983028;28;87453;-61
2022/06/18 11:09:37;;;;;;;3.78;1.17;;;21.10;99.90;21.40;98536.00;;;;4983606;28;87014;-58
2022/06/18 11:12:20;;;;;;;3.97;1.20;;;21.00;99.90;21.20;98536.00;;;;4982164;28;86995;-60
2022/06/18 11:14:46;;;;;;;1.55;1.10;;;20.90;99.90;20.80;98528.00;;;;4983430;28;87696;-60
2022/06/18 11:17:22;;;;;;;3.47;1.35;;;20.50;99.90;20.70;98538.00;;;;4983175;28;87466;-60
2022/06/18 11:19:49;;;;;;;3.55;0.95;;;20.40;99.90;20.60;98525.00;;;;4965668;28;87045;-60
2022/06/18 11:22:23;;;;;;;3.75;1.20;;;20.30;99.90;20.50;98524.00;;;;4965736;28;87098;-60
2022/06/18 11:25:02;;;;;;;2.88;1.02;;;20.20;99.90;20.40;98521.00;;;;4967123;28;88742;-60
2022/06/18 11:27:37;;;;;;;3.45;1.52;;;20.10;99.90;20.40;98522.00;;;;4965599;28;88155;-60
2022/06/18 11:30:21;;;;;;;3.88;1.23;;;20.10;99.90;20.40;98523.00;;;;4983207;28;86957;-60
2022/06/18 11:32:49;;;;;;;3.05;1.20;;;20.10;99.90;20.60;98505.00;;;;4983303;28;86988;-61
2022/06/18 11:35:17;;;;;;;3.05;1.10;;;20.40;99.90;21.00;98506.00;;;;4981688;28;87081;-61
2022/06/18 11:37:56;;;;;;;2.85;1.20;;;20.70;99.90;21.40;98503.00;;;;4982685;28;88046;-60
2022/06/18 11:40:23;;;;;;;3.13;1.00;;;21.00;99.90;21.70;98500.00;;;;4983235;28;87087;-60